Time;durP1;ratioP1;P1;durP2;ratioP2;P2;SDS_P1;SDS_P2;PMS_P1;PMS_P2;Temp;Humidity;BMP_temperature;BMP_pressure;BME280_temperature;BME280_humidity;BME280_pressure;Samples;Min_cycle;Max_cycle;Signal;HPM_P1;HPM_P2
2024/04/03 00:01:54;;;;;;;2.30;0.30;;;;;;;12.58;52.02;98870.59;105832;1257;60492;-57
2024/04/03 00:04:22;;;;;;;1.50;0.40;;;;;;;12.57;51.92;98868.95;105332;1257;60306;-56
2024/04/03 00:06:49;;;;;;;1.20;0.30;;;;;;;12.55;51.97;98871.52;105502;1251;64923;-57
2024/04/03 00:09:17;;;;;;;1.80;0.40;;;;;;;12.56;51.98;98871.52;105273;1256;60406;-58
2024/04/03 00:11:44;;;;;;;0.40;0.10;;;;;;;12.53;51.88;98886.90;105206;1253;64299;-56
2024/04/03 00:14:12;;;;;;;1.40;0.40;;;;;;;12.44;51.89;98880.48;105116;1257;60504;-57
2024/04/03 00:16:39;;;;;;;2.00;0.40;;;;;;;12.41;52.02;98885.93;105010;1252;59270;-57
2024/04/03 00:19:07;;;;;;;1.10;0.30;;;;;;;12.39;52.03;98884.50;109208;1253;63684;-58
2024/04/03 00:21:34;;;;;;;0.70;0.10;;;;;;;12.37;52.22;98881.48;108094;1253;60466;-57
2024/04/03 00:24:01;;;;;;;1.50;0.50;;;;;;;12.35;52.28;98882.11;105269;1253;62458;-57
2024/04/03 00:26:29;;;;;;;1.10;0.30;;;;;;;12.35;52.50;98883.15;105095;1258;61803;-57
2024/04/03 00:28:56;;;;;;;1.90;0.40;;;;;;;12.34;52.43;98890.28;105186;1257;61266;-58
2024/04/03 00:31:24;;;;;;;1.10;0.30;;;;;;;12.34;52.42;98885.77;105682;1253;66295;-56
2024/04/03 00:33:52;;;;;;;0.80;0.20;;;;;;;12.32;52.38;98901.72;105234;1253;61326;-60
2024/04/03 00:36:19;;;;;;;0.70;0.10;;;;;;;12.33;52.25;98907.80;105929;1253;63872;-57
2024/04/03 00:38:47;;;;;;;1.20;0.30;;;;;;;12.37;52.32;98900.13;105215;1252;62191;-59
2024/04/03 00:41:14;;;;;;;1.60;0.40;;;;;;;12.37;52.32;98909.66;105270;1253;61234;-57
2024/04/03 00:43:42;;;;;;;1.00;0.30;;;;;;;12.35;52.25;98910.88;105233;1253;65815;-58
2024/04/03 00:46:09;;;;;;;1.60;0.30;;;;;;;12.33;52.35;98906.44;106253;1255;62989;-58
2024/04/03 00:48:37;;;;;;;1.90;0.50;;;;;;;12.33;52.35;98912.20;105195;1253;63867;-59
2024/04/03 00:51:04;;;;;;;2.50;0.50;;;;;;;12.31;52.44;98923.89;105202;1253;61355;-58
2024/04/03 00:53:32;;;;;;;0.90;0.30;;;;;;;12.29;52.61;98915.13;105627;1254;61456;-58
2024/04/03 00:55:59;;;;;;;2.60;0.50;;;;;;;12.25;52.89;98920.16;105153;1258;66215;-57
2024/04/03 00:58:27;;;;;;;2.20;0.50;;;;;;;12.22;52.98;98917.09;105048;1257;63025;-58
2024/04/03 01:00:55;;;;;;;0.40;0.10;;;;;;;12.19;53.11;98930.73;105231;1257;62502;-57
2024/04/03 01:03:22;;;;;;;2.10;0.60;;;;;;;12.17;53.26;98924.13;105285;1254;62971;-58
2024/04/03 01:06:03;;;;;;;1.80;0.50;;;;;;;12.18;53.46;98926.73;105908;1257;61118;-58
2024/04/03 01:08:31;;;;;;;0.70;0.20;;;;;;;12.26;53.26;98922.32;106541;1253;74632;-58
2024/04/03 01:10:59;;;;;;;2.90;0.40;;;;;;;12.34;53.17;98929.15;105867;1253;61413;-59
2024/04/03 01:13:26;;;;;;;1.80;0.50;;;;;;;12.41;53.07;98930.48;106800;1253;63741;-60
2024/04/03 01:16:01;;;;;;;2.10;0.60;;;;;;;12.43;53.04;98938.75;109297;1254;59378;-60
2024/04/03 01:18:28;;;;;;;2.70;0.70;;;;;;;12.41;52.96;98943.48;105916;1253;61249;-56
2024/04/03 01:20:56;;;;;;;1.90;0.70;;;;;;;12.40;53.01;98943.60;105890;1258;64501;-56
2024/04/03 01:23:23;;;;;;;2.80;0.80;;;;;;;12.38;53.10;98946.65;105359;1254;61919;-55
2024/04/03 01:25:51;;;;;;;0.90;0.30;;;;;;;12.35;53.21;98968.59;105309;1259;64289;-57
2024/04/03 01:28:21;;;;;;;3.90;0.90;;;;;;;12.31;53.13;98960.38;105905;1257;61343;-56
2024/04/03 01:30:51;;;;;;;3.70;0.70;;;;;;;12.29;53.20;98957.48;106183;1257;61260;-56
2024/04/03 01:33:19;;;;;;;2.70;0.70;;;;;;;12.26;53.19;98965.74;105147;1258;64428;-56
2024/04/03 01:35:46;;;;;;;1.60;0.40;;;;;;;12.23;53.29;98973.23;105210;1258;61500;-56
2024/04/03 01:38:14;;;;;;;4.50;0.50;;;;;;;12.25;53.43;98971.73;105151;1258;62435;-61
2024/04/03 01:40:41;;;;;;;2.80;0.90;;;;;;;12.29;53.22;98989.80;105278;1253;61382;-57
2024/04/03 01:43:08;;;;;;;2.00;0.60;;;;;;;12.29;53.16;98992.51;105268;1253;61280;-57
2024/04/03 01:45:36;;;;;;;2.60;0.60;;;;;;;12.31;53.19;98983.63;105318;1253;65713;-58
2024/04/03 01:48:04;;;;;;;3.40;0.80;;;;;;;12.29;53.24;98986.27;105262;1258;61233;-57
2024/04/03 01:50:37;;;;;;;2.50;0.30;;;;;;;12.27;53.39;98991.63;105610;1255;62733;-58
2024/04/03 01:53:04;;;;;;;3.30;0.90;;;;;;;12.26;53.51;98999.80;105605;1253;61374;-56
2024/04/03 01:55:32;;;;;;;2.50;0.60;;;;;;;12.25;53.67;99003.79;105317;1257;61160;-57
2024/04/03 01:57:59;;;;;;;3.60;1.00;;;;;;;12.24;53.73;99006.89;105175;1258;66409;-55
2024/04/03 02:00:27;;;;;;;4.60;0.80;;;;;;;12.24;53.76;99001.78;105228;1258;61294;-55
2024/04/03 02:02:54;;;;;;;3.30;0.80;;;;;;;12.27;53.83;99004.08;105252;1253;64405;-57
2024/04/03 02:05:22;;;;;;;2.10;0.70;;;;;;;12.34;53.79;99015.70;105371;1253;61354;-57
2024/04/03 02:07:49;;;;;;;1.10;0.30;;;;;;;12.35;53.72;99009.24;105297;1253;61436;-58
2024/04/03 02:10:17;;;;;;;3.50;0.80;;;;;;;12.32;53.78;99004.63;107090;1254;64488;-57
2024/04/03 02:12:44;;;;;;;2.50;0.70;;;;;;;12.27;53.90;99013.08;105094;1253;62728;-57
2024/04/03 02:15:12;;;;;;;1.30;0.40;;;;;;;12.24;53.96;99017.83;105045;1259;62450;-58
2024/04/03 02:17:39;;;;;;;4.90;0.80;;;;;;;12.21;54.10;99016.15;105384;1253;61273;-62
2024/04/03 02:20:08;;;;;;;3.00;0.70;;;;;;;12.16;54.21;99028.38;105082;1258;61470;-57
2024/04/03 02:22:36;;;;;;;2.90;1.00;;;;;;;12.09;54.19;99025.23;105557;1257;67595;-57
2024/04/03 02:25:04;;;;;;;2.80;0.90;;;;;;;12.06;54.37;99024.87;105299;1253;61367;-56
2024/04/03 02:27:31;;;;;;;2.90;0.70;;;;;;;12.07;54.17;99026.35;106219;1253;63727;-58
2024/04/03 02:30:00;;;;;;;2.10;0.70;;;;;;;12.11;54.08;99033.50;105229;1258;61708;-56
2024/04/03 02:32:27;;;;;;;2.60;0.70;;;;;;;12.12;53.97;99033.85;105218;1253;62105;-56
2024/04/03 02:34:55;;;;;;;2.40;0.80;;;;;;;12.12;53.90;99027.60;105194;1258;64403;-57
2024/04/03 02:37:22;;;;;;;3.50;0.50;;;;;;;12.07;53.96;99027.67;105935;1257;61504;-56
2024/04/03 02:39:50;;;;;;;2.10;0.60;;;;;;;12.04;54.04;99032.96;105193;1253;63692;-57
2024/04/03 02:42:17;;;;;;;3.00;0.90;;;;;;;12.00;54.30;99035.15;105168;1258;61222;-57
2024/04/03 02:44:45;;;;;;;1.70;0.30;;;;;;;11.96;54.33;99025.00;106202;1253;61364;-58
2024/04/03 02:47:12;;;;;;;3.10;0.90;;;;;;;11.94;54.28;99032.25;105303;1253;68386;-60
2024/04/03 02:49:40;;;;;;;1.90;0.70;;;;;;;11.93;54.41;99033.97;105331;1253;61307;-56
2024/04/03 02:52:08;;;;;;;3.90;0.50;;;;;;;11.96;54.30;99033.83;105309;1254;72477;-57
2024/04/03 02:54:35;;;;;;;2.10;0.70;;;;;;;12.01;54.34;99036.23;105284;1254;61237;-55
2024/04/03 02:57:03;;;;;;;3.50;0.90;;;;;;;12.05;54.15;99038.77;105215;1252;61409;-57
2024/04/03 02:59:32;;;;;;;2.30;0.40;;;;;;;12.07;54.05;99048.23;105600;1251;64452;-57
2024/04/03 03:01:59;;;;;;;3.40;0.80;;;;;;;12.08;54.02;99052.05;105243;1253;61648;-57
2024/04/03 03:04:27;;;;;;;2.00;0.70;;;;;;;12.07;54.09;99052.65;105625;1257;64234;-57
2024/04/03 03:06:55;;;;;;;2.80;0.90;;;;;;;12.06;54.08;99056.50;105156;1254;61572;-58
2024/04/03 03:09:23;;;;;;;2.00;0.70;;;;;;;12.03;54.05;99059.56;105159;1257;61762;-57
2024/04/03 03:11:51;;;;;;;2.50;1.00;;;;;;;12.00;53.99;99062.92;105195;1258;65776;-55
2024/04/03 03:14:18;;;;;;;4.90;1.50;;;;;;;11.96;54.01;99062.09;105201;1253;61408;-59
2024/04/03 03:16:46;;;;;;;6.10;1.20;;;;;;;11.93;54.14;99072.58;106072;1253;63675;-59
2024/04/03 03:19:13;;;;;;;1.60;0.50;;;;;;;11.90;54.29;99075.20;105330;1255;61333;-57
2024/04/03 03:21:41;;;;;;;3.50;1.10;;;;;;;11.93;54.28;99081.60;105272;1258;61229;-57
2024/04/03 03:24:08;;;;;;;5.10;1.40;;;;;;;11.97;54.21;99088.36;105239;1253;66267;-58
2024/04/03 03:26:36;;;;;;;3.50;1.10;;;;;;;11.99;54.16;99079.83;105297;1254;61339;-58
2024/04/03 03:29:03;;;;;;;2.70;0.80;;;;;;;11.99;54.26;99080.36;105322;1253;63935;-59
2024/04/03 03:31:31;;;;;;;3.40;1.40;;;;;;;11.99;54.29;99084.58;105299;1253;61345;-59
2024/04/03 03:33:58;;;;;;;3.90;1.40;;;;;;;11.99;54.20;99087.95;105377;1257;61371;-59
2024/04/03 03:36:26;;;;;;;4.60;1.40;;;;;;;11.99;54.26;99085.20;105261;1258;65734;-58
2024/04/03 03:38:53;;;;;;;3.40;1.20;;;;;;;11.98;54.27;99087.54;105203;1258;61336;-58
2024/04/03 03:41:21;;;;;;;5.60;1.50;;;;;;;11.98;54.33;99089.00;105859;1254;63682;-60
2024/04/03 03:43:48;;;;;;;2.40;0.40;;;;;;;11.97;54.44;99090.10;105393;1253;61356;-58
2024/04/03 03:46:16;;;;;;;3.30;1.10;;;;;;;12.00;54.49;99093.48;105392;1259;61254;-57
2024/04/03 03:54:16;;;;;;;;;;;;;;;12.06;54.82;99096.32;105309;1253;63774;-58
2024/04/03 03:56:44;;;;;;;2.40;0.60;;;;;;;12.07;54.82;99097.70;105050;1254;61344;-58
2024/04/03 03:59:11;;;;;;;4.30;1.40;;;;;;;12.05;54.78;99110.55;105220;1253;61289;-59
2024/04/03 04:01:39;;;;;;;3.30;1.20;;;;;;;12.02;54.94;99111.04;105152;1254;64532;-57
2024/04/03 04:04:06;;;;;;;4.30;1.50;;;;;;;12.00;55.04;99115.67;105205;1257;61934;-57
2024/04/03 04:06:34;;;;;;;5.10;1.80;;;;;;;11.98;55.23;99121.94;105189;1254;63843;-55
2024/04/03 04:09:01;;;;;;;4.80;1.80;;;;;;;12.02;55.27;99124.58;106217;1253;62330;-58
2024/04/03 04:11:29;;;;;;;3.70;1.60;;;;;;;12.08;55.40;99126.38;105137;1259;61111;-59
2024/04/03 04:13:56;;;;;;;2.00;0.70;;;;;;;12.13;55.41;99130.98;105178;1259;65858;-60
2024/04/03 04:16:24;;;;;;;4.40;1.70;;;;;;;12.13;55.36;99129.90;105086;1259;61478;-60
2024/04/03 04:18:51;;;;;;;3.80;1.70;;;;;;;12.14;55.43;99129.64;105071;1253;62442;-59
2024/04/03 04:21:18;;;;;;;4.40;2.00;;;;;;;12.16;55.53;99131.23;105120;1254;61262;-58
2024/04/03 04:23:47;;;;;;;3.70;1.70;;;;;;;12.16;55.60;99131.52;105072;1259;61328;-57
2024/04/03 04:26:14;;;;;;;4.10;1.90;;;;;;;12.16;55.43;99134.23;106183;1257;66222;-58
2024/04/03 04:28:42;;;;;;;5.10;2.10;;;;;;;12.14;55.39;99133.30;105181;1256;61885;-62
2024/04/03 04:31:09;;;;;;;2.00;0.50;;;;;;;12.18;55.44;99135.71;105122;1252;62509;-56
2024/04/03 04:33:37;;;;;;;5.30;1.70;;;;;;;12.23;55.27;99133.18;105450;1252;61253;-59
2024/04/03 04:36:05;;;;;;;4.50;1.80;;;;;;;12.26;55.16;99126.25;106547;1253;61375;-62
2024/04/03 04:38:33;;;;;;;3.50;1.50;;;;;;;12.27;55.30;99134.52;105515;1259;64912;-62
2024/04/03 04:41:02;;;;;;;5.20;1.60;;;;;;;12.26;55.09;99133.42;105017;1253;72287;-63
2024/04/03 04:43:31;;;;;;;5.60;1.60;;;;;;;12.23;55.07;99142.70;106532;1256;63856;-64
2024/04/03 04:46:00;;;;;;;5.40;1.80;;;;;;;12.19;55.19;99148.63;109213;1253;61260;-67
2024/04/03 04:48:30;;;;;;;5.00;1.70;;;;;;;12.14;55.29;99148.60;105679;1257;61223;-61
2024/04/03 04:50:58;;;;;;;4.30;1.60;;;;;;;12.11;55.43;99147.38;109193;1257;64497;-60
2024/04/03 04:53:26;;;;;;;4.00;1.60;;;;;;;12.13;55.45;99152.45;109199;1251;61382;-65
2024/04/03 04:55:56;;;;;;;5.00;2.00;;;;;;;12.17;55.48;99152.14;109239;1252;63724;-64
2024/04/03 04:58:24;;;;;;;5.90;1.90;;;;;;;12.20;55.50;99154.34;109146;1253;59043;-63
2024/04/03 05:01:00;;;;;;;4.40;1.70;;;;;;;12.21;55.56;99155.13;109197;1258;59025;-60
2024/04/03 05:03:28;;;;;;;4.70;2.00;;;;;;;12.21;55.69;99161.25;109251;1252;66199;-64
2024/04/03 05:05:55;;;;;;;3.80;1.40;;;;;;;12.21;55.70;99158.09;109268;1253;60234;-64
2024/04/03 05:08:23;;;;;;;6.20;2.50;;;;;;;12.22;55.81;99162.54;106915;1256;63696;-61
2024/04/03 05:10:57;;;;;;;4.50;1.90;;;;;;;12.22;55.93;99171.25;105128;1264;61267;-59
2024/04/03 05:13:29;;;;;;;6.00;2.20;;;;;;;12.29;55.84;99171.84;105713;1253;61282;-58
2024/04/03 05:15:56;;;;;;;4.30;1.80;;;;;;;12.36;55.87;99171.79;108054;1254;66013;-56
2024/04/03 05:18:24;;;;;;;5.20;2.30;;;;;;;12.39;55.90;99172.31;105762;1254;61886;-60
2024/04/03 05:20:51;;;;;;;5.80;2.20;;;;;;;12.39;55.88;99176.02;104996;1254;63756;-58
2024/04/03 05:23:19;;;;;;;5.10;2.50;;;;;;;12.39;55.86;99183.53;109221;1253;59266;-59
2024/04/03 05:25:46;;;;;;;4.70;2.50;;;;;;;12.41;56.00;99189.33;109062;1252;59244;-59
2024/04/03 05:28:14;;;;;;;5.10;2.50;;;;;;;12.43;55.91;99179.05;108989;1254;64490;-56
2024/04/03 05:30:41;;;;;;;5.40;2.00;;;;;;;12.49;56.06;99178.71;109088;1254;60112;-64
2024/04/03 05:33:09;;;;;;;5.00;2.00;;;;;;;12.59;55.87;99180.59;109143;1253;62509;-57
2024/04/03 05:35:36;;;;;;;5.40;2.30;;;;;;;12.71;55.60;99188.91;109135;1254;59234;-60
2024/04/03 05:38:04;;;;;;;4.60;2.30;;;;;;;12.84;55.19;99186.72;109221;1253;59259;-60
2024/04/03 05:40:31;;;;;;;7.60;3.00;;;;;;;12.94;55.16;99192.61;105481;1258;76907;-57
2024/04/03 05:42:59;;;;;;;6.90;2.40;;;;;;;13.06;54.87;99186.98;105752;1259;69923;-56
2024/04/03 05:45:27;;;;;;;7.50;2.50;;;;;;;13.16;54.65;99198.15;105178;1257;62845;-57
2024/04/03 05:47:54;;;;;;;5.00;2.70;;;;;;;13.24;54.31;99205.92;109015;1252;58965;-57
2024/04/03 05:50:21;;;;;;;5.50;2.80;;;;;;;13.26;53.93;99213.24;106014;1253;61381;-57
2024/04/03 05:52:49;;;;;;;5.10;2.40;;;;;;;13.31;53.91;99206.75;105326;1258;64834;-61
2024/04/03 05:55:17;;;;;;;9.70;3.20;;;;;;;13.37;53.74;99207.57;105190;1257;62085;-54
2024/04/03 05:57:44;;;;;;;5.90;2.80;;;;;;;13.45;53.20;99214.72;105229;1252;62451;-57
2024/04/03 06:00:13;;;;;;;9.20;2.70;;;;;;;13.53;52.73;99223.05;105003;1257;61161;-56
2024/04/03 06:02:40;;;;;;;5.20;2.60;;;;;;;13.54;52.30;99228.04;109249;1253;59027;-59
2024/04/03 06:05:08;;;;;;;8.20;3.30;;;;;;;13.56;52.46;99227.66;109094;1254;66060;-60
2024/04/03 06:07:35;;;;;;;9.40;3.20;;;;;;;13.56;51.97;99228.63;109269;1253;73038;-59
2024/04/03 06:10:03;;;;;;;5.50;2.70;;;;;;;13.56;51.48;99242.36;109178;1254;75503;-58
2024/04/03 06:12:31;;;;;;;5.70;2.30;;;;;;;13.61;51.63;99235.31;109220;1253;59033;-60
2024/04/03 06:14:58;;;;;;;7.60;3.00;;;;;;;13.66;51.29;99231.10;108276;1254;60124;-58
2024/04/03 06:17:26;;;;;;;7.50;3.00;;;;;;;13.69;50.98;99245.52;105157;1259;76872;-58
2024/04/03 06:19:53;;;;;;;7.70;2.90;;;;;;;13.70;50.69;99248.27;105035;1256;62366;-57
2024/04/03 06:22:21;;;;;;;5.60;2.50;;;;;;;13.69;50.34;99244.46;105070;1258;77522;-59
2024/04/03 06:24:48;;;;;;;6.50;2.30;;;;;;;13.70;50.27;99255.66;109231;1255;59036;-57
2024/04/03 06:27:16;;;;;;;6.90;3.20;;;;;;;13.73;50.33;99265.70;105236;1256;61368;-55
2024/04/03 06:29:43;;;;;;;6.20;2.70;;;;;;;13.74;50.07;99253.77;104992;1266;66344;-60
2024/04/03 06:32:11;;;;;;;5.80;2.20;;;;;;;13.78;50.12;99250.75;107142;1257;61247;-57
2024/04/03 06:34:39;;;;;;;5.40;2.30;;;;;;;13.82;50.09;99249.74;105273;1256;64106;-56
2024/04/03 06:37:06;;;;;;;6.60;2.90;;;;;;;13.89;49.89;99258.08;105199;1256;61109;-59
2024/04/03 06:39:37;;;;;;;7.00;3.10;;;;;;;14.01;49.84;99248.41;105106;1256;62151;-58
2024/04/03 06:42:05;;;;;;;5.40;2.50;;;;;;;14.08;49.35;99274.02;106305;1257;68844;-57
2024/04/03 06:44:37;;;;;;;5.50;3.20;;;;;;;14.12;49.03;99264.58;105446;1257;61277;-59
2024/04/03 06:47:04;;;;;;;5.50;2.30;;;;;;;14.11;48.79;99258.63;105150;1259;62573;-58
2024/04/03 06:49:32;;;;;;;6.60;2.40;;;;;;;14.11;48.93;99275.07;105137;1259;61237;-59
2024/04/03 06:52:00;;;;;;;7.60;2.60;;;;;;;14.11;48.47;99264.83;105158;1259;61217;-57
2024/04/03 06:54:28;;;;;;;6.00;2.70;;;;;;;14.14;48.32;99269.13;105246;1258;65915;-58
2024/04/03 06:56:55;;;;;;;4.90;2.20;;;;;;;14.14;48.46;99262.75;105918;1258;61538;-52
2024/04/03 06:59:23;;;;;;;5.50;2.50;;;;;;;14.14;48.47;99270.86;105139;1257;64282;-59
2024/04/03 07:01:51;;;;;;;6.40;2.50;;;;;;;14.18;48.20;99280.70;105209;1256;61291;-57
2024/04/03 07:04:18;;;;;;;5.80;2.30;;;;;;;14.15;47.25;99284.15;105113;1251;62074;-58
2024/04/03 07:06:46;;;;;;;4.40;2.10;;;;;;;14.14;47.46;99273.33;105105;1259;66111;-58
2024/04/03 07:09:13;;;;;;;6.80;2.80;;;;;;;14.18;47.85;99278.04;105140;1255;71409;-56
2024/04/03 07:11:41;;;;;;;5.10;2.80;;;;;;;14.18;47.54;99298.84;105044;1254;62594;-57
2024/04/03 07:14:08;;;;;;;5.20;2.40;;;;;;;14.18;47.71;99286.84;105132;1262;61135;-57
2024/04/03 07:16:36;;;;;;;7.20;2.40;;;;;;;14.24;47.64;99287.37;105263;1257;61351;-59
2024/04/03 07:19:03;;;;;;;6.50;2.50;;;;;;;14.30;47.54;99292.13;105156;1254;66675;-58
2024/04/03 07:21:31;;;;;;;5.20;2.30;;;;;;;14.35;47.50;99297.23;105239;1261;61585;-56
2024/04/03 07:23:59;;;;;;;6.80;2.50;;;;;;;14.43;47.34;99290.88;105116;1254;64485;-57
2024/04/03 07:26:27;;;;;;;6.60;2.80;;;;;;;14.49;46.91;99303.92;106557;1254;61234;-58
2024/04/03 07:28:55;;;;;;;5.50;2.20;;;;;;;14.54;46.86;99277.51;105203;1253;61327;-59
2024/04/03 07:31:23;;;;;;;5.50;2.30;;;;;;;14.59;47.24;99279.58;104941;1257;66258;-60
2024/04/03 07:33:51;;;;;;;4.60;2.10;;;;;;;14.69;47.22;99281.94;108439;1256;60556;-58
2024/04/03 07:36:19;;;;;;;6.00;2.40;;;;;;;14.81;46.73;99289.23;105197;1259;74905;-59
2024/04/03 07:38:47;;;;;;;4.20;2.00;;;;;;;14.87;46.28;99301.10;105274;1257;61444;-59
2024/04/03 07:41:24;;;;;;;4.10;1.90;;;;;;;14.93;46.22;99295.98;105017;1255;61189;-57
2024/04/03 07:43:52;;;;;;;4.80;1.80;;;;;;;15.03;46.18;99295.17;105733;1259;76890;-58
2024/04/03 07:46:20;;;;;;;5.60;2.20;;;;;;;15.17;45.79;99295.61;105743;1257;61273;-57
2024/04/03 07:48:47;;;;;;;5.50;2.30;;;;;;;15.33;45.72;99298.55;105195;1257;64737;-58
2024/04/03 07:51:15;;;;;;;6.10;2.00;;;;;;;15.48;45.23;99301.23;105251;1258;61253;-58
2024/04/03 07:53:43;;;;;;;5.10;2.10;;;;;;;15.58;45.06;99309.65;105296;1254;62053;-59
2024/04/03 07:56:13;;;;;;;4.90;2.00;;;;;;;15.62;44.50;99313.95;105151;1255;64656;-59
2024/04/03 07:58:41;;;;;;;4.10;2.00;;;;;;;15.61;44.25;99322.11;106201;1255;61266;-58
2024/04/03 08:01:09;;;;;;;5.30;2.00;;;;;;;15.58;43.96;99320.38;105120;1258;62867;-59
2024/04/03 08:03:39;;;;;;;5.10;2.30;;;;;;;15.54;43.83;99330.80;105197;1255;61340;-58
2024/04/03 08:06:07;;;;;;;6.70;1.70;;;;;;;15.50;43.98;99324.86;105526;1257;61929;-57
2024/04/03 08:08:35;;;;;;;5.30;2.30;;;;;;;15.51;43.69;99341.77;105216;1254;66234;-57
2024/04/03 08:11:02;;;;;;;7.40;2.10;;;;;;;15.52;43.68;99336.28;105064;1256;72784;-59
2024/04/03 08:13:30;;;;;;;5.40;2.20;;;;;;;15.51;43.76;99331.50;105656;1257;74987;-56
2024/04/03 08:16:01;;;;;;;5.10;2.00;;;;;;;15.50;43.91;99335.98;105081;1260;61219;-59
2024/04/03 08:18:29;;;;;;;4.90;1.80;;;;;;;15.52;43.77;99340.44;105768;1254;61296;-59
2024/04/03 08:21:06;;;;;;;5.30;2.10;;;;;;;15.54;43.96;99346.27;105098;1252;74936;-60
2024/04/03 08:23:33;;;;;;;6.90;1.70;;;;;;;15.58;43.71;99341.44;105807;1255;61483;-56
2024/04/03 08:26:05;;;;;;;5.20;1.40;;;;;;;15.62;43.53;99348.05;104919;1254;64398;-59
2024/04/03 08:28:41;;;;;;;8.00;1.90;;;;;;;15.67;43.32;99353.63;105544;1258;61349;-58
2024/04/03 08:31:13;;;;;;;4.60;1.70;;;;;;;15.70;42.73;99350.83;104967;1257;241948;-57
2024/04/03 08:35:19;;;;;;;3.10;1.20;;;;;;;15.43;42.53;99356.81;102001;1295;600243;-58
2024/04/03 08:37:50;;;;;;;6.10;2.00;;;;;;;15.70;41.61;99367.96;106554;1268;59683;-58
2024/04/03 08:40:24;;;;;;;8.20;1.70;;;;;;;15.78;41.60;99359.60;103954;1269;62180;-61
2024/04/03 08:42:52;;;;;;;7.30;1.90;;;;;;;15.82;42.10;99351.93;103956;1269;66560;-59
2024/04/03 08:45:21;;;;;;;4.40;1.80;;;;;;;15.88;41.81;99347.65;104920;1268;72658;-60
2024/04/03 08:47:49;;;;;;;5.40;1.70;;;;;;;15.90;41.69;99357.11;104032;1269;179950;-59
2024/04/03 08:50:17;;;;;;;5.80;2.70;;;;;;;15.91;41.87;99350.87;104347;1268;59680;-57
2024/04/03 08:52:44;;;;;;;3.60;1.20;;;;;;;15.86;41.99;99358.48;104628;1265;59575;-59
2024/04/03 08:55:14;;;;;;;4.00;1.60;;;;;;;15.85;42.16;99355.77;104301;1265;65208;-58
2024/04/03 08:57:42;;;;;;;3.90;1.50;;;;;;;15.88;41.94;99353.81;104453;1267;73124;-58
2024/04/03 09:00:10;;;;;;;6.70;1.60;;;;;;;15.94;41.63;99354.55;105183;1266;66132;-58
2024/04/03 09:02:38;;;;;;;5.90;1.60;;;;;;;16.01;41.20;99363.83;104549;1267;61032;-60
2024/04/03 09:05:06;;;;;;;4.60;1.60;;;;;;;16.03;41.01;99364.63;104353;1265;60556;-59
2024/04/03 09:07:34;;;;;;;4.00;1.50;;;;;;;16.03;40.84;99369.27;104738;1265;76135;-59
2024/04/03 09:10:01;;;;;;;5.10;1.50;;;;;;;16.06;41.26;99355.82;104467;1270;60618;-56
2024/04/03 09:12:29;;;;;;;4.10;1.40;;;;;;;16.15;41.05;99356.80;104744;1266;62817;-56
2024/04/03 09:15:05;;;;;;;6.90;1.60;;;;;;;16.21;40.29;99365.17;104411;1267;60805;-57
2024/04/03 09:17:34;;;;;;;6.00;2.40;;;;;;;16.20;40.26;99373.80;104376;1270;60954;-57
2024/04/03 09:20:04;;;;;;;8.20;1.80;;;;;;;16.19;40.56;99371.78;104837;1265;64071;-57
2024/04/03 09:22:31;;;;;;;4.80;1.80;;;;;;;16.23;40.63;99380.09;104378;1265;62502;-61
2024/04/03 09:25:00;;;;;;;3.70;1.10;;;;;;;16.31;40.06;99369.95;105570;1270;64715;-59
2024/04/03 09:27:28;;;;;;;5.20;1.70;;;;;;;16.41;39.59;99362.84;104297;1265;60563;-60
2024/04/03 09:29:56;;;;;;;7.40;1.70;;;;;;;16.48;38.62;99351.43;104678;1266;61868;-60
2024/04/03 09:32:23;;;;;;;6.20;1.90;;;;;;;16.49;38.88;99366.16;104254;1268;66457;-58
2024/04/03 09:34:51;;;;;;;5.50;1.40;;;;;;;16.50;38.59;99364.75;104372;1265;72722;-59
2024/04/03 09:37:19;;;;;;;3.00;1.00;;;;;;;16.58;38.06;99361.23;104432;1265;62771;-60
2024/04/03 09:39:48;;;;;;;4.00;1.00;;;;;;;16.72;38.21;99355.02;104381;1266;62279;-58
2024/04/03 09:42:18;;;;;;;5.80;1.30;;;;;;;16.85;37.35;99359.64;104460;1265;61118;-57
2024/04/03 09:44:45;;;;;;;3.50;1.40;;;;;;;16.95;36.75;99360.40;104671;1268;65348;-58
2024/04/03 09:47:16;;;;;;;5.10;1.10;;;;;;;17.03;36.44;99359.58;104938;1268;72646;-57
2024/04/03 09:49:48;;;;;;;3.80;1.40;;;;;;;17.15;36.11;99359.94;104386;1268;74898;-58
2024/04/03 09:52:15;;;;;;;3.70;1.20;;;;;;;17.25;35.95;99356.91;104408;1270;60572;-59
2024/04/03 09:54:43;;;;;;;4.10;1.10;;;;;;;17.27;35.89;99369.60;104308;1268;60493;-58
2024/04/03 09:57:10;;;;;;;4.20;1.50;;;;;;;17.22;35.88;99372.64;104338;1271;67208;-57
2024/04/03 09:59:38;;;;;;;4.60;1.20;;;;;;;17.26;36.40;99365.56;104395;1265;72660;-59
2024/04/03 10:02:10;;;;;;;6.50;1.20;;;;;;;17.31;35.60;99375.70;104579;1265;64103;-59
2024/04/03 10:04:38;;;;;;;3.70;1.20;;;;;;;17.40;35.53;99360.89;104400;1265;62230;-59
2024/04/03 10:07:20;;;;;;;5.90;1.30;;;;;;;17.46;35.23;99370.99;104292;1266;60539;-59
2024/04/03 10:09:51;;;;;;;5.20;1.50;;;;;;;17.46;35.00;99371.35;108475;1265;76019;-58
2024/04/03 10:12:19;;;;;;;4.10;1.30;;;;;;;17.38;35.49;99369.29;107705;1265;61828;-65
2024/04/03 10:14:56;;;;;;;4.60;1.30;;;;;;;17.32;35.86;99379.10;105151;1267;64206;-61
2024/04/03 10:17:25;;;;;;;4.10;1.20;;;;;;;17.32;36.27;99371.85;106700;1268;60580;-61
2024/04/03 10:19:59;;;;;;;4.00;1.30;;;;;;;17.39;36.49;99375.96;105836;1266;59583;-60
2024/04/03 10:22:30;;;;;;;6.00;1.20;;;;;;;17.46;36.42;99387.28;104440;1270;65323;-62
2024/04/03 10:24:58;;;;;;;5.20;1.00;;;;;;;17.48;35.77;99395.35;104856;1265;60960;-59
2024/04/03 10:27:25;;;;;;;5.50;0.90;;;;;;;17.49;35.26;99402.52;104280;1265;73647;-61
2024/04/03 10:30:01;;;;;;;7.20;0.80;;;;;;;17.54;34.83;99415.04;104915;1266;62283;-61
2024/04/03 10:32:29;;;;;;;3.20;0.90;;;;;;;17.68;34.79;99399.23;104313;1265;62251;-61
2024/04/03 10:34:57;;;;;;;3.80;1.10;;;;;;;17.79;34.94;99394.86;104294;1271;67263;-61
2024/04/03 10:37:24;;;;;;;3.00;0.90;;;;;;;17.78;34.73;99395.50;104387;1266;71382;-61
2024/04/03 10:39:52;;;;;;;2.70;0.70;;;;;;;17.72;34.73;99399.34;104310;1265;64839;-61
2024/04/03 10:42:19;;;;;;;3.20;0.70;;;;;;;17.66;34.65;99405.36;106984;1268;60491;-59
2024/04/03 10:44:47;;;;;;;5.10;1.20;;;;;;;17.62;34.43;99413.31;105010;1259;60518;-62
2024/04/03 10:47:16;;;;;;;4.20;0.90;;;;;;;17.58;34.53;99414.91;104791;1259;64153;-60
2024/04/03 10:49:44;;;;;;;2.50;0.80;;;;;;;17.55;34.35;99417.76;104977;1257;72633;-59
2024/04/03 10:52:12;;;;;;;6.30;1.40;;;;;;;17.56;34.84;99417.67;104886;1263;64991;-60
2024/04/03 10:54:40;;;;;;;6.20;0.90;;;;;;;17.61;34.94;99421.92;105104;1262;60540;-64
2024/04/03 10:57:07;;;;;;;4.00;1.10;;;;;;;17.65;34.66;99432.98;104981;1259;60537;-65
2024/04/03 10:59:35;;;;;;;3.20;0.90;;;;;;;17.67;34.82;99428.98;104839;1259;63830;-68
2024/04/03 11:02:07;;;;;;;3.30;1.20;;;;;;;17.68;34.79;99418.63;105014;1261;63581;-59
2024/04/03 11:04:35;;;;;;;4.50;1.10;;;;;;;17.73;34.57;99419.75;105871;1264;62587;-59
2024/04/03 11:07:03;;;;;;;4.50;0.90;;;;;;;17.78;34.54;99413.06;104810;1259;61646;-61
2024/04/03 11:09:32;;;;;;;4.20;1.00;;;;;;;17.87;35.03;99418.71;105357;1259;60487;-58
2024/04/03 11:12:03;;;;;;;4.30;0.90;;;;;;;17.98;34.79;99410.94;105430;1259;74090;-59
2024/04/03 11:14:30;;;;;;;9.10;1.00;;;;;;;18.03;34.41;99418.18;104751;1264;62210;-58
2024/04/03 11:16:58;;;;;;;3.20;0.90;;;;;;;18.04;34.37;99421.55;104775;1259;64297;-60
2024/04/03 11:19:26;;;;;;;2.10;0.70;;;;;;;18.03;34.19;99422.44;106148;1263;60612;-61
2024/04/03 11:21:54;;;;;;;3.00;0.90;;;;;;;17.98;34.01;99421.74;104889;1260;60385;-61
2024/04/03 11:24:22;;;;;;;3.40;0.80;;;;;;;17.91;33.66;99422.11;106443;1261;67567;-59
2024/04/03 11:26:50;;;;;;;5.90;1.00;;;;;;;17.84;34.08;99425.23;104790;1260;61711;-58
2024/04/03 11:29:31;;;;;;;3.70;0.80;;;;;;;17.81;34.26;99429.39;104939;1259;75047;-58
2024/04/03 11:31:59;;;;;;;3.20;0.90;;;;;;;17.77;34.37;99428.08;105130;1263;60442;-58
2024/04/03 11:34:28;;;;;;;4.30;1.00;;;;;;;17.71;34.83;99430.85;104825;1262;60381;-58
2024/04/03 11:36:56;;;;;;;4.10;1.10;;;;;;;17.66;35.06;99430.32;104882;1259;67154;-60